South San Francisco, CA

1:06 AM PDT on October 23, 2014 (GMT -0700)
Serra Highlands | Change Station
CLOSE
Current Station
Personal Weather Station
Location: South San Francisco, CA
Elevation: 161 ft
Nearby Weather Stations

Elev 161 ft 37.66 °N, 122.45 °W | Updated 1 minute ago

Partly Cloudy
Partly Cloudy
57.7 °F
Feels Like 57.7 °F
N
0.0
Wind Variable Wind from WNW

Today
High -- | Low -- °F
--% Chance of Precip.
Yesterday
High -- | Low -- °F
Precip. -- in
7:25 AM 6:21 PM
Waning Crescent, 0% visible
Pressure 30.04 in
Visibility 10.0 miles
Clouds Mostly Cloudy 15000 ft
Dew Point 57 °F
Humidity 99%
Rainfall 0.00 in
Snow Depth Not available.
UV 0 out of 12
Pollen 2.40 out of 12
Ozone Good
PM2.5 Good
Flu Activity Sporadic
METAR KSFO 230756Z 16003KT 10SM BKN150 18/14 A3003 RMK AO2 SLP170 T01780139 402330139 $

More Conditions Fewer Conditions

Pressure 30.04 in
Visibility 10.0 miles
Clouds Mostly Cloudy 15000 ft
Dew Point 57 °F
Humidity 99%
Rainfall 0.00 in
Snow Depth Not available.
UV 0 out of 12
Pollen 2.40 out of 12
Ozone Good
PM2.5 Good
Flu Activity Sporadic
METAR KSFO 230756Z 16003KT 10SM BKN150 18/14 A3003 RMK AO2 SLP170 T01780139 402330139 $

More Conditions Fewer Conditions

10-Day Weather Forecast

Almanac

Astronomy

Oct. 23, 2014 Rise Set
Actual Time 7:25 AM PDT 6:21 PM PDT
Civil Twilight 6:59 AM PDT 6:48 PM PDT
Nautical Twilight 6:28 AM PDT 7:18 PM PDT
Astronomical Twilight 5:58 AM PDT 7:49 PM PDT
Moon 7:11 AM PDT 6:26 PM PDT
Length of Visible Light 11h 49m
Length of Day
10h 55m
Tomorrow will be 2m 15s shorter.
Waning Crescent, 0% of the Moon is Illuminated
Today
Waning Crescent
Oct 23
New
Oct 30
First Quarter
Nov 6
Full
Nov 14
Last Quarter

Today's Extremes

State Highs State Lows

Community

WunderPhotos

Upload Photos

1,764,194 photos uploaded!

Nearby

Air Quality

  Air Quality AQ Index Pollutant
Yesterday Good
OZONE
Yesterday Good
PM2.5
Current Good
PM2.5
Current Good
OZONE
Wednesday Good
OZONE
Thursday Good
NO2
Friday Good
OZONE
Saturday Good
PM2.5
Sunday Good
PM2.5
Monday Good
PM2.5

Snow Depth

Station Depth Elevation
Forestdale Creek 0 in 8029 ft
Echo Peak 1 in 7800 ft
Rubicon #2 1 in 7500 ft
Ebbetts Pass 0 in 8700 ft
Burnside Lake 1 in 8139 ft

Earthquake Activity

City Distance Mag. Time & Date
No recent earthquake activity has been reported nearby.
Minimum magnitude displayed is 2.5.

Coastal Water Temperatures

Place Temperature
No Stations Reporting

Nearby Weather Stations